createdAt,value
2017-12-23T00:01:52.676Z,102364.70
2017-12-23T00:04:21.032Z,102362.98
2017-12-23T00:06:49.385Z,102372.91
2017-12-23T00:09:17.799Z,102362.17
2017-12-23T00:11:46.275Z,102358.33
2017-12-23T00:14:14.624Z,102345.88
2017-12-23T00:16:42.959Z,102345.91
2017-12-23T00:19:11.801Z,102342.74
2017-12-23T00:21:40.159Z,102333.67
2017-12-23T00:24:08.547Z,102324.73
2017-12-23T00:26:36.915Z,102322.03
2017-12-23T00:29:05.268Z,102316.65
2017-12-23T00:31:34.032Z,102304.47
2017-12-23T00:34:02.385Z,102304.77
2017-12-23T00:36:30.749Z,102305.77
2017-12-23T00:38:59.163Z,102300.13
2017-12-23T00:41:27.508Z,102301.66
2017-12-23T00:43:55.915Z,102298.47
2017-12-23T00:46:24.267Z,102302.71
2017-12-23T00:48:52.624Z,102298.34
2017-12-23T00:51:21.039Z,102303.16
2017-12-23T00:53:49.407Z,102300.80
2017-12-23T00:56:17.797Z,102305.59
2017-12-23T00:58:46.162Z,102297.86
2017-12-23T01:01:14.533Z,102291.22
2017-12-23T01:03:42.897Z,102262.13
2017-12-23T01:06:11.740Z,102264.62
2017-12-23T01:08:40.124Z,102258.61
2017-12-23T01:11:08.472Z,102246.20
2017-12-23T01:13:36.849Z,102242.50
2017-12-23T01:16:05.280Z,102247.77
2017-12-23T01:18:33.646Z,102250.01
2017-12-23T01:21:02.004Z,102248.24
2017-12-23T01:23:30.398Z,102256.33
2017-12-23T01:25:58.754Z,102259.20
2017-12-23T01:28:27.115Z,102250.45
2017-12-23T01:30:55.472Z,102246.30
2017-12-23T01:33:24.236Z,102244.55
2017-12-23T01:35:53.393Z,102232.06
2017-12-23T01:38:21.802Z,102223.25
2017-12-23T01:40:50.167Z,102221.44
2017-12-23T01:43:18.555Z,102217.86
2017-12-23T01:45:46.935Z,102215.00
2017-12-23T01:48:27.188Z,102220.75
2017-12-23T01:50:55.551Z,102226.73
2017-12-23T01:53:23.912Z,102212.94
2017-12-23T01:55:52.332Z,102215.38
2017-12-23T01:58:21.706Z,102202.45
2017-12-23T02:00:50.065Z,102207.27
2017-12-23T02:03:18.830Z,102202.20
2017-12-23T02:05:47.285Z,102196.80
2017-12-23T02:08:15.764Z,102190.19
2017-12-23T02:10:44.127Z,102190.09
2017-12-23T02:13:12.523Z,102192.59
2017-12-23T02:15:40.888Z,102190.58
2017-12-23T02:18:09.255Z,102183.50
2017-12-23T02:20:38.426Z,102185.30
2017-12-23T02:23:07.193Z,102181.47
2017-12-23T02:25:35.589Z,102192.39
2017-12-23T02:28:04.299Z,102173.68
2017-12-23T02:30:32.683Z,102157.62
2017-12-23T02:33:01.044Z,102165.55
2017-12-23T02:35:29.441Z,102168.30
2017-12-23T02:37:57.853Z,102153.15
2017-12-23T02:40:26.211Z,102154.20
2017-12-23T02:42:54.578Z,102165.89
2017-12-23T02:45:22.982Z,102146.51
2017-12-23T02:47:51.341Z,102138.83
2017-12-23T02:50:19.716Z,102141.59
2017-12-23T02:52:48.077Z,102141.77
2017-12-23T02:55:16.832Z,102151.09
2017-12-23T02:57:45.292Z,102151.17
2017-12-23T03:00:13.655Z,102159.18
2017-12-23T03:02:42.012Z,102146.22
2017-12-23T03:05:10.374Z,102145.12
2017-12-23T03:07:39.133Z,102150.40
2017-12-23T03:10:07.495Z,102152.34
2017-12-23T03:12:35.872Z,102145.81
2017-12-23T03:15:04.225Z,102141.25
2017-12-23T03:17:32.624Z,102139.25
2017-12-23T03:20:00.993Z,102131.30
2017-12-23T03:22:29.355Z,102138.22
2017-12-23T03:24:57.712Z,102143.84
2017-12-23T03:27:26.465Z,102145.39
2017-12-23T03:29:54.835Z,102141.03
2017-12-23T03:32:23.199Z,102138.95
2017-12-23T03:34:51.608Z,102123.77
2017-12-23T03:37:19.976Z,102122.83
2017-12-23T03:39:48.347Z,102112.13
2017-12-23T03:42:16.729Z,102110.02
2017-12-23T03:44:45.086Z,102109.62
2017-12-23T03:47:13.443Z,102090.66
2017-12-23T03:49:41.799Z,102080.11
2017-12-23T03:52:10.586Z,102074.05
2017-12-23T03:54:38.940Z,102060.07
2017-12-23T03:57:07.296Z,102058.21
2017-12-23T03:59:35.665Z,102056.98
2017-12-23T04:02:04.028Z,102062.28
2017-12-23T04:04:32.392Z,102061.63
2017-12-23T04:07:01.089Z,102064.17
2017-12-23T04:09:29.492Z,102062.74
2017-12-23T04:11:58.996Z,102068.41
2017-12-23T04:14:27.359Z,102058.98
2017-12-23T04:16:55.764Z,102051.00
2017-12-23T04:19:24.136Z,102045.64
2017-12-23T04:21:52.512Z,102045.66
2017-12-23T04:24:20.869Z,102045.20
2017-12-23T04:26:49.239Z,102054.84
2017-12-23T04:29:17.616Z,102053.17
2017-12-23T04:31:45.984Z,102046.45
2017-12-23T04:34:14.331Z,102053.63
2017-12-23T04:36:43.103Z,102044.39
2017-12-23T04:39:11.472Z,102041.18
2017-12-23T04:41:39.839Z,102038.20
2017-12-23T04:44:08.315Z,102039.22
2017-12-23T04:46:36.706Z,102028.61
2017-12-23T04:49:05.152Z,102027.14
2017-12-23T04:51:33.512Z,102022.97
2017-12-23T04:54:02.258Z,102005.05
2017-12-23T04:56:30.729Z,102010.20
2017-12-23T04:58:59.098Z,101997.42
2017-12-23T05:01:27.519Z,101992.20
2017-12-23T05:03:56.071Z,101993.77
2017-12-23T05:06:24.996Z,101995.01
2017-12-23T05:08:53.357Z,101991.12
2017-12-23T05:11:21.734Z,101997.95
2017-12-23T05:13:50.093Z,101993.13
2017-12-23T05:16:18.469Z,101989.58
2017-12-23T05:18:46.921Z,101971.64
2017-12-23T05:21:15.280Z,101975.70
2017-12-23T05:23:44.076Z,101982.80
2017-12-23T05:26:13.002Z,101982.72
2017-12-23T05:28:41.388Z,101983.16
2017-12-23T05:31:09.755Z,101993.80
2017-12-23T05:33:38.115Z,101987.55
2017-12-23T05:36:06.476Z,101992.44
2017-12-23T05:38:34.894Z,101996.47
2017-12-23T05:41:03.574Z,101991.88
2017-12-23T05:43:31.981Z,101992.50
2017-12-23T05:46:00.457Z,101988.38
2017-12-23T05:48:28.820Z,101978.62
2017-12-23T05:50:57.170Z,101979.45
2017-12-23T05:53:25.589Z,101968.67
2017-12-23T05:55:54.031Z,101970.20
2017-12-23T05:58:22.401Z,101957.73
2017-12-23T06:00:50.748Z,101960.27
2017-12-23T06:03:19.126Z,101958.09
2017-12-23T06:05:47.572Z,101956.17
2017-12-23T06:08:15.934Z,101948.59
2017-12-23T06:10:44.324Z,101940.30
2017-12-23T06:13:12.693Z,101919.45
2017-12-23T06:15:41.052Z,101904.00
2017-12-23T06:18:09.465Z,101912.23
2017-12-23T06:20:37.830Z,101917.69
2017-12-23T06:23:06.176Z,101912.83
2017-12-23T06:25:34.936Z,101901.20
2017-12-23T06:28:03.444Z,101897.09
2017-12-23T06:30:32.203Z,101898.79
2017-12-23T06:33:01.725Z,101900.77
2017-12-23T06:35:30.901Z,101891.48
2017-12-23T06:37:59.252Z,101886.20
2017-12-23T06:40:27.616Z,101877.23
2017-12-23T06:42:55.993Z,101886.20
2017-12-23T06:45:24.353Z,101874.66
2017-12-23T06:47:52.728Z,101864.05
2017-12-23T06:50:21.476Z,101869.25
2017-12-23T06:52:49.839Z,101863.52
2017-12-23T06:55:18.272Z,101865.75
2017-12-23T06:57:47.016Z,101872.06
2017-12-23T07:00:15.384Z,101860.88
2017-12-23T07:02:43.764Z,101867.15
2017-12-23T07:05:12.141Z,101864.73
2017-12-23T07:07:40.486Z,101850.73
2017-12-23T07:10:08.839Z,101853.44
2017-12-23T07:12:37.596Z,101858.03
2017-12-23T07:15:05.947Z,101846.14
2017-12-23T07:17:34.330Z,101853.27
2017-12-23T07:20:02.685Z,101844.17
2017-12-23T07:22:31.061Z,101838.92
2017-12-23T07:24:59.408Z,101849.22
2017-12-23T07:27:27.871Z,101845.99
2017-12-23T07:29:56.242Z,101836.39
2017-12-23T07:32:24.597Z,101826.75
2017-12-23T07:34:52.944Z,101826.34
2017-12-23T07:37:21.708Z,101826.17
2017-12-23T07:39:50.177Z,101828.62
2017-12-23T07:42:18.552Z,101825.09
2017-12-23T07:44:46.908Z,101816.09
2017-12-23T07:47:15.332Z,101814.50
2017-12-23T07:49:43.662Z,101806.13
2017-12-23T07:52:12.020Z,101804.25
2017-12-23T07:54:40.377Z,101792.66
2017-12-23T07:57:08.839Z,101784.97
2017-12-23T07:59:37.308Z,101776.50
2017-12-23T08:02:05.676Z,101782.59
2017-12-23T08:04:34.043Z,101785.38
2017-12-23T08:07:02.436Z,101780.72
2017-12-23T08:09:30.821Z,101768.73
2017-12-23T08:11:59.177Z,101769.53
2017-12-23T08:14:27.532Z,101774.30
2017-12-23T08:16:55.958Z,101775.12
2017-12-23T08:19:24.428Z,101772.73
2017-12-23T08:21:52.788Z,101771.28
2017-12-23T08:24:21.146Z,101763.21
2017-12-23T08:26:49.916Z,101766.97
2017-12-23T08:29:18.274Z,101755.83
2017-12-23T08:31:46.632Z,101757.12
2017-12-23T08:34:16.036Z,101763.81
2017-12-23T08:36:44.407Z,101760.81
2017-12-23T08:39:12.817Z,101755.30
2017-12-23T08:41:41.168Z,101764.72
2017-12-23T08:44:09.524Z,101756.83
2017-12-23T08:46:38.544Z,101761.28
2017-12-23T08:49:06.901Z,101761.33
2017-12-23T08:51:35.319Z,101744.95
2017-12-23T08:54:03.702Z,101739.00
2017-12-23T08:56:32.163Z,101741.76
2017-12-23T08:59:00.531Z,101745.77
2017-12-23T09:01:28.895Z,101734.12
2017-12-23T09:03:57.257Z,101745.66
2017-12-23T09:06:25.688Z,101748.66
2017-12-23T09:08:54.048Z,101761.22
2017-12-23T09:11:22.416Z,101759.90
2017-12-23T09:13:50.780Z,101772.13
2017-12-23T09:16:19.205Z,101778.61
2017-12-23T09:18:47.563Z,101777.72
2017-12-23T09:21:15.915Z,101797.87
2017-12-23T09:23:44.333Z,101791.81
2017-12-23T09:26:12.689Z,101783.83
2017-12-23T09:28:41.054Z,101795.11
2017-12-23T09:31:09.468Z,101804.28
2017-12-23T09:33:37.843Z,101797.84
2017-12-23T09:36:06.332Z,101794.81
2017-12-23T09:38:34.710Z,101794.42
2017-12-23T09:41:03.079Z,101782.20
2017-12-23T09:43:31.448Z,101778.65
2017-12-23T09:45:59.829Z,101774.44
2017-12-23T09:48:28.229Z,101768.81
2017-12-23T09:50:56.591Z,101752.14
2017-12-23T09:53:24.960Z,101752.92
2017-12-23T09:55:53.314Z,101738.24
2017-12-23T09:58:21.724Z,101741.87
2017-12-23T10:00:50.116Z,101736.97
2017-12-23T10:03:18.489Z,101738.03
2017-12-23T10:05:46.865Z,101744.31
2017-12-23T10:08:15.267Z,101731.57
2017-12-23T10:10:43.636Z,101719.86
2017-12-23T10:13:12.004Z,101725.08
2017-12-23T10:15:40.384Z,101718.02
2017-12-23T10:18:08.744Z,101707.72
2017-12-23T10:20:37.107Z,101721.11
2017-12-23T10:23:05.456Z,101727.23
2017-12-23T10:25:33.911Z,101725.05
2017-12-23T10:28:02.288Z,101716.11
2017-12-23T10:30:30.667Z,101706.44
2017-12-23T10:32:59.050Z,101699.38
2017-12-23T10:35:27.413Z,101692.97
2017-12-23T10:37:55.794Z,101707.87
2017-12-23T10:40:24.156Z,101686.88
2017-12-23T10:42:52.550Z,101681.94
2017-12-23T10:45:20.899Z,101690.38
2017-12-23T10:47:49.280Z,101682.73
2017-12-23T10:50:17.698Z,101685.27
2017-12-23T10:52:46.056Z,101675.22
2017-12-23T10:55:14.420Z,101682.58
2017-12-23T10:57:42.822Z,101693.20
2017-12-23T11:00:11.194Z,101677.64
2017-12-23T11:02:39.545Z,101663.99
2017-12-23T11:05:07.965Z,101657.27
2017-12-23T11:07:36.309Z,101652.25
2017-12-23T11:10:04.656Z,101653.29
2017-12-23T11:12:33.101Z,101654.81
2017-12-23T11:15:01.460Z,101632.95
2017-12-23T11:17:29.835Z,101638.14
2017-12-23T11:19:58.233Z,101628.38
2017-12-23T11:22:26.591Z,101622.78
2017-12-23T11:24:54.955Z,101620.52
2017-12-23T11:27:23.382Z,101599.31
2017-12-23T11:29:51.727Z,101592.81
2017-12-23T11:32:20.075Z,101593.34
2017-12-23T11:34:48.853Z,101579.57
2017-12-23T11:37:17.225Z,101592.69
2017-12-23T11:39:45.596Z,101579.55
2017-12-23T11:42:14.068Z,101564.39
2017-12-23T11:44:42.428Z,101569.62
2017-12-23T11:47:10.784Z,101556.17
2017-12-23T11:49:39.148Z,101568.27
2017-12-23T11:52:08.436Z,101562.25
2017-12-23T11:54:37.294Z,101581.10
2017-12-23T11:57:05.653Z,101551.39
2017-12-23T11:59:34.041Z,101540.89
2017-12-23T12:02:02.417Z,101527.38
2017-12-23T12:04:30.839Z,101534.78
2017-12-23T12:06:59.140Z,101538.17
2017-12-23T12:09:27.500Z,101531.98
2017-12-23T12:11:56.352Z,101525.61
2017-12-23T12:14:24.829Z,101526.77
2017-12-23T12:16:53.211Z,101508.95
2017-12-23T12:19:21.656Z,101523.14
2017-12-23T12:21:49.999Z,101516.19
2017-12-23T12:24:18.748Z,101519.55
2017-12-23T12:26:47.130Z,101498.63
2017-12-23T12:29:15.500Z,101501.48
2017-12-23T12:31:43.882Z,101500.34
2017-12-23T12:34:12.233Z,101503.70
2017-12-23T12:36:40.587Z,101506.63
2017-12-23T12:39:10.168Z,101492.45
2017-12-23T12:41:38.540Z,101484.71
2017-12-23T12:44:06.915Z,101493.22
2017-12-23T12:46:35.285Z,101490.63
2017-12-23T12:49:03.651Z,101492.48
2017-12-23T12:51:32.032Z,101471.38
2017-12-23T12:54:00.398Z,101467.33
2017-12-23T12:56:29.723Z,101482.03
2017-12-23T12:58:58.090Z,101474.41
2017-12-23T13:01:26.468Z,101473.77
2017-12-23T13:03:54.825Z,101463.68
2017-12-23T13:06:23.203Z,101472.01
2017-12-23T13:08:51.557Z,101471.23
2017-12-23T13:11:20.335Z,101476.11
2017-12-23T13:13:49.205Z,101474.95
2017-12-23T13:16:17.587Z,101466.81
2017-12-23T13:18:46.048Z,101473.06
2017-12-23T13:21:14.416Z,101447.98
2017-12-23T13:23:42.800Z,101450.45
2017-12-23T13:26:11.155Z,101433.72
2017-12-23T13:28:39.568Z,101437.39
2017-12-23T13:31:07.928Z,101452.25
2017-12-23T13:33:36.292Z,101455.08
2017-12-23T13:36:04.660Z,101459.50
2017-12-23T13:38:33.106Z,101456.82
2017-12-23T13:41:01.558Z,101458.38
2017-12-23T13:43:29.925Z,101461.00
2017-12-23T13:45:58.312Z,101445.32
2017-12-23T13:48:26.675Z,101450.42
2017-12-23T13:50:55.037Z,101460.89
2017-12-23T13:53:23.481Z,101454.32
2017-12-23T13:55:51.832Z,101448.09
2017-12-23T13:58:20.201Z,101452.82
2017-12-23T14:00:48.560Z,101443.59
2017-12-23T14:03:16.979Z,101439.73
2017-12-23T14:05:45.336Z,101442.27
2017-12-23T14:08:13.734Z,101441.68
2017-12-23T14:10:42.103Z,101429.23
2017-12-23T14:13:10.461Z,101431.91
2017-12-23T14:15:38.836Z,101408.81
2017-12-23T14:18:07.201Z,101431.97
2017-12-23T14:20:37.163Z,101426.91
2017-12-23T14:23:05.524Z,101430.95
2017-12-23T14:25:33.904Z,101432.95
2017-12-23T14:28:02.265Z,101424.30
2017-12-23T14:30:30.621Z,101428.89
2017-12-23T14:32:59.391Z,101412.67
2017-12-23T14:35:28.143Z,101408.06
2017-12-23T14:37:56.520Z,101428.62
2017-12-23T14:40:24.878Z,101404.61
2017-12-23T14:42:54.217Z,101407.78
2017-12-23T14:45:22.689Z,101404.80
2017-12-23T14:47:51.045Z,101412.77
2017-12-23T14:50:19.460Z,101407.69
2017-12-23T14:52:47.823Z,101407.64
2017-12-23T14:55:16.296Z,101403.78
2017-12-23T14:57:44.675Z,101410.02
2017-12-23T15:00:13.489Z,101417.13
2017-12-23T15:02:41.840Z,101422.09
2017-12-23T15:05:10.189Z,101412.11
2017-12-23T15:07:38.611Z,101416.92
2017-12-23T15:10:07.059Z,101406.23
2017-12-23T15:12:35.562Z,101412.06
2017-12-23T15:15:03.917Z,101423.34
2017-12-23T15:17:32.322Z,101411.86
2017-12-23T15:20:00.703Z,101420.32
2017-12-23T15:22:29.073Z,101427.70
2017-12-23T15:24:57.449Z,101416.98
2017-12-23T15:27:25.821Z,101428.19
2017-12-23T15:29:54.219Z,101422.71
2017-12-23T15:32:22.575Z,101420.80
2017-12-23T15:34:50.944Z,101424.98
2017-12-23T15:37:19.367Z,101422.09
2017-12-23T15:39:47.727Z,101427.34
2017-12-23T15:42:16.097Z,101432.29
2017-12-23T15:44:44.472Z,101416.67
2017-12-23T15:47:12.852Z,101424.76
2017-12-23T15:49:41.232Z,101420.22
2017-12-23T15:52:09.612Z,101419.15
2017-12-23T15:54:37.979Z,101407.16
2017-12-23T15:57:06.336Z,101421.75
2017-12-23T15:59:35.110Z,101411.44
2017-12-23T16:02:03.964Z,101407.89
2017-12-23T16:04:32.436Z,101413.70
2017-12-23T16:07:00.850Z,101415.28
2017-12-23T16:09:29.305Z,101404.38
2017-12-23T16:11:57.661Z,101404.80
2017-12-23T16:14:26.025Z,101401.44
2017-12-23T16:16:54.396Z,101388.51
2017-12-23T16:19:22.777Z,101385.90
2017-12-23T16:21:51.146Z,101382.86
2017-12-23T16:24:19.980Z,101380.94
2017-12-23T16:26:48.339Z,101399.92
2017-12-23T16:29:16.744Z,101394.74
2017-12-23T16:31:45.220Z,101384.86
2017-12-23T16:34:13.678Z,101393.22
2017-12-23T16:36:42.046Z,101391.41
2017-12-23T16:39:10.413Z,101391.72
2017-12-23T16:41:38.822Z,101378.98
2017-12-23T16:44:07.216Z,101383.50
2017-12-23T16:46:35.577Z,101392.09
2017-12-23T16:49:04.050Z,101382.96
2017-12-23T16:51:32.444Z,101386.84
2017-12-23T16:54:00.835Z,101393.63
2017-12-23T16:56:29.236Z,101376.08
2017-12-23T16:58:57.656Z,101397.02
2017-12-23T17:01:26.067Z,101401.27
2017-12-23T17:03:54.556Z,101392.19
2017-12-23T17:06:22.971Z,101386.97
2017-12-23T17:08:51.309Z,101387.94
2017-12-23T17:11:19.697Z,101381.87
2017-12-23T17:13:48.179Z,101371.23
2017-12-23T17:16:16.535Z,101371.48
2017-12-23T17:18:44.896Z,101374.84
2017-12-23T17:21:13.269Z,101376.03
2017-12-23T17:23:41.663Z,101390.12
2017-12-23T17:26:10.039Z,101381.66
2017-12-23T17:28:56.265Z,101385.05
2017-12-23T17:31:24.648Z,101368.20
2017-12-23T17:33:53.022Z,101377.70
2017-12-23T17:36:21.394Z,101359.55
2017-12-23T17:38:49.749Z,101362.73
2017-12-23T17:41:18.113Z,101350.37
2017-12-23T17:43:46.487Z,101356.80
2017-12-23T17:46:15.233Z,101361.02
2017-12-23T17:48:43.600Z,101354.44
2017-12-23T17:51:11.956Z,101344.98
2017-12-23T17:53:40.352Z,101352.80
2017-12-23T17:56:08.722Z,101357.27
2017-12-23T17:58:37.121Z,101362.47
2017-12-23T18:01:05.499Z,101364.34
2017-12-23T18:03:33.871Z,101362.05
2017-12-23T18:06:02.304Z,101376.88
2017-12-23T18:08:31.050Z,101368.01
2017-12-23T18:10:59.422Z,101369.84
2017-12-23T18:13:27.797Z,101367.69
2017-12-23T18:15:56.258Z,101366.48
2017-12-23T18:18:24.669Z,101368.36
2017-12-23T18:20:53.044Z,101373.23
2017-12-23T18:23:21.523Z,101375.59
2017-12-23T18:25:49.892Z,101371.62
2017-12-23T18:28:18.251Z,101364.94
2017-12-23T18:30:46.620Z,101365.19
2017-12-23T18:33:14.995Z,101371.31
2017-12-23T18:35:43.387Z,101361.59
2017-12-23T18:38:11.780Z,101362.19
2017-12-23T18:40:40.226Z,101352.34
2017-12-23T18:43:09.077Z,101360.98
2017-12-23T18:45:37.432Z,101350.66
2017-12-23T18:48:05.804Z,101354.70
2017-12-23T18:50:34.176Z,101359.19
2017-12-23T18:53:02.543Z,101352.58
2017-12-23T18:55:30.922Z,101343.82
2017-12-23T18:57:59.414Z,101358.20
2017-12-23T19:00:27.792Z,101361.72
2017-12-23T19:02:56.157Z,101360.13
2017-12-23T19:05:24.520Z,101362.11
2017-12-23T19:07:53.268Z,101361.70
2017-12-23T19:10:21.731Z,101368.44
2017-12-23T19:12:50.084Z,101365.31
2017-12-23T19:15:18.501Z,101366.24
2017-12-23T19:17:46.828Z,101365.23
2017-12-23T19:20:15.666Z,101354.59
2017-12-23T19:22:44.027Z,101345.57
2017-12-23T19:25:12.401Z,101344.29
2017-12-23T19:27:40.800Z,101357.64
2017-12-23T19:30:09.184Z,101359.84
2017-12-23T19:32:37.544Z,101356.84
2017-12-23T19:35:05.944Z,101351.27
2017-12-23T19:37:34.403Z,101348.70
2017-12-23T19:40:02.792Z,101351.48
2017-12-23T19:42:31.151Z,101343.36
2017-12-23T19:44:59.551Z,101323.96
2017-12-23T19:47:27.908Z,101344.36
2017-12-23T19:49:56.273Z,101340.31
2017-12-23T19:52:24.631Z,101346.42
2017-12-23T19:54:53.382Z,101358.47
2017-12-23T19:57:21.764Z,101345.50
2017-12-23T19:59:50.177Z,101348.86
2017-12-23T20:02:18.955Z,101361.36
2017-12-23T20:04:47.307Z,101357.32
2017-12-23T20:07:15.672Z,101368.78
2017-12-23T20:09:44.039Z,101368.36
2017-12-23T20:12:12.529Z,101366.08
2017-12-23T20:14:40.906Z,101361.95
2017-12-23T20:17:09.268Z,101362.41
2017-12-23T20:19:37.665Z,101368.59
2017-12-23T20:22:06.029Z,101358.89
2017-12-23T20:24:34.379Z,101365.37
2017-12-23T20:27:03.135Z,101369.27
2017-12-23T20:29:31.612Z,101361.47
2017-12-23T20:32:00.032Z,101353.35
2017-12-23T20:34:28.475Z,101356.81
2017-12-23T20:36:56.833Z,101359.37
2017-12-23T20:39:25.186Z,101356.72
2017-12-23T20:41:53.549Z,101352.50
2017-12-23T20:44:22.312Z,101339.93
2017-12-23T20:46:50.691Z,101330.80
2017-12-23T20:49:19.149Z,101344.58
2017-12-23T20:51:47.561Z,101335.69
2017-12-23T20:54:16.420Z,101330.53
2017-12-23T20:56:44.781Z,101322.78
2017-12-23T20:59:13.184Z,101326.50
2017-12-23T21:01:41.574Z,101328.87
2017-12-23T21:04:10.040Z,101323.22
2017-12-23T21:06:38.408Z,101306.19
2017-12-23T21:09:06.786Z,101314.48
2017-12-23T21:11:35.162Z,101314.56
2017-12-23T21:14:03.522Z,101304.28
2017-12-23T21:16:31.884Z,101302.95
2017-12-23T21:19:00.237Z,101309.56
2017-12-23T21:21:29.163Z,101306.36
2017-12-23T21:23:57.530Z,101313.70
2017-12-23T21:26:25.896Z,101316.38
2017-12-23T21:28:54.732Z,101315.66
2017-12-23T21:31:23.604Z,101313.60
2017-12-23T21:33:51.956Z,101303.20
2017-12-23T21:36:20.791Z,101306.83
2017-12-23T21:38:49.172Z,101288.38
2017-12-23T21:41:17.531Z,101302.03
2017-12-23T21:43:45.942Z,101304.77
2017-12-23T21:46:14.307Z,101306.31
2017-12-23T21:48:42.684Z,101312.89
2017-12-23T21:51:11.064Z,101302.75
2017-12-23T21:53:39.432Z,101305.26
2017-12-23T21:56:07.828Z,101301.13
2017-12-23T21:58:36.291Z,101301.95
2017-12-23T22:01:04.655Z,101294.76
2017-12-23T22:03:33.021Z,101304.61
2017-12-23T22:06:01.392Z,101292.58
2017-12-23T22:08:30.156Z,101298.49
2017-12-23T22:10:58.516Z,101305.77
2017-12-23T22:13:26.888Z,101294.74
2017-12-23T22:15:55.248Z,101287.97
2017-12-23T22:18:23.615Z,101282.20
2017-12-23T22:20:51.968Z,101303.07
2017-12-23T22:23:20.736Z,101312.19
2017-12-23T22:25:49.136Z,101291.75
2017-12-23T22:28:17.883Z,101270.73
2017-12-23T22:30:46.264Z,101289.94
2017-12-23T22:33:14.624Z,101284.59
2017-12-23T22:35:43.016Z,101278.61
2017-12-23T22:38:11.372Z,101287.33
2017-12-23T22:40:40.608Z,101281.26
2017-12-23T22:43:08.996Z,101268.71
2017-12-23T22:45:37.401Z,101272.67
2017-12-23T22:48:06.535Z,101267.65
2017-12-23T22:50:34.927Z,101262.94
2017-12-23T22:53:03.293Z,101257.37
2017-12-23T22:55:31.646Z,101261.80
2017-12-23T22:58:00.021Z,101248.86
2017-12-23T23:00:28.431Z,101256.02
2017-12-23T23:02:56.783Z,101251.66
2017-12-23T23:05:25.148Z,101258.13
2017-12-23T23:07:53.507Z,101247.77
2017-12-23T23:10:22.277Z,101242.00
2017-12-23T23:12:50.632Z,101251.87
2017-12-23T23:15:19.125Z,101236.03
2017-12-23T23:17:47.483Z,101231.20
2017-12-23T23:20:15.845Z,101229.57
2017-12-23T23:22:44.207Z,101236.72
2017-12-23T23:25:13.050Z,101248.16
2017-12-23T23:27:41.425Z,101245.50
2017-12-23T23:30:09.775Z,101245.11
2017-12-23T23:32:38.176Z,101239.80
2017-12-23T23:35:06.532Z,101234.69
2017-12-23T23:37:34.932Z,101229.79
2017-12-23T23:40:03.340Z,101236.59
2017-12-23T23:42:31.707Z,101226.23
2017-12-23T23:45:00.071Z,101226.34
2017-12-23T23:47:28.472Z,101228.45
2017-12-23T23:49:56.973Z,101222.95
2017-12-23T23:52:26.833Z,101224.08
2017-12-23T23:54:55.200Z,101242.95
2017-12-23T23:57:23.560Z,101224.43
2017-12-23T23:59:51.924Z,101227.63
